createdAt,value
2019-02-15T00:00:39.979Z,11.57
2019-02-15T00:03:09.783Z,11.17
2019-02-15T00:05:39.319Z,10.37
2019-02-15T00:08:21.131Z,10.57
2019-02-15T00:10:50.531Z,10.90
2019-02-15T00:13:19.957Z,11.00
2019-02-15T00:15:49.328Z,11.40
2019-02-15T00:18:56.323Z,10.70
2019-02-15T00:21:28.790Z,12.10
2019-02-15T00:23:58.289Z,11.53
2019-02-15T00:26:27.697Z,10.87
2019-02-15T00:28:57.234Z,10.13
2019-02-15T00:31:26.635Z,8.30
2019-02-15T00:33:56.161Z,8.57
2019-02-15T00:36:25.587Z,9.20
2019-02-15T00:38:54.976Z,9.20
2019-02-15T00:41:24.370Z,10.33
2019-02-15T00:43:53.786Z,10.60
2019-02-15T00:46:45.359Z,9.57
2019-02-15T00:49:32.604Z,10.07
2019-02-15T00:52:12.169Z,9.50
2019-02-15T00:55:00.674Z,10.60
2019-02-15T00:57:52.308Z,10.43
2019-02-15T01:00:33.938Z,9.70
2019-02-15T01:03:32.191Z,9.87
2019-02-15T01:06:11.077Z,10.43
2019-02-15T01:08:59.598Z,9.70
2019-02-15T01:11:32.538Z,10.00
2019-02-15T01:14:01.943Z,9.47
2019-02-15T01:16:31.414Z,10.10
2019-02-15T01:19:00.818Z,9.63
2019-02-15T01:21:30.310Z,10.03
2019-02-15T01:23:59.716Z,9.87
2019-02-15T01:26:36.131Z,9.97
2019-02-15T01:29:18.027Z,9.93
2019-02-15T01:32:02.394Z,9.23
2019-02-15T01:34:57.399Z,9.73
2019-02-15T01:37:44.593Z,9.47
2019-02-15T01:40:33.339Z,9.33
2019-02-15T01:43:16.191Z,10.27
2019-02-15T01:45:52.285Z,9.23
2019-02-15T01:48:21.712Z,9.27
2019-02-15T01:50:51.153Z,8.87
2019-02-15T01:53:20.559Z,9.03
2019-02-15T01:55:49.973Z,9.00
2019-02-15T01:58:19.379Z,9.73
2019-02-15T02:00:48.779Z,9.87
2019-02-15T02:03:18.177Z,10.00
2019-02-15T02:05:47.579Z,9.47
2019-02-15T02:08:22.701Z,10.57
2019-02-15T02:10:52.137Z,9.77
2019-02-15T02:13:21.529Z,9.67
2019-02-15T02:15:51.117Z,9.30
2019-02-15T02:18:20.533Z,9.40
2019-02-15T02:20:49.952Z,9.37
2019-02-15T02:23:19.427Z,9.00
2019-02-15T02:25:48.846Z,9.27
2019-02-15T02:28:18.260Z,9.67
2019-02-15T02:30:47.717Z,9.20
2019-02-15T02:33:17.096Z,9.40
2019-02-15T02:35:46.586Z,9.20
2019-02-15T02:38:15.984Z,9.00
2019-02-15T02:40:45.461Z,9.77
2019-02-15T02:43:14.935Z,9.13
2019-02-15T02:45:44.334Z,8.70
2019-02-15T02:48:13.800Z,9.33
2019-02-15T02:50:43.210Z,8.90
2019-02-15T02:53:12.623Z,8.60
2019-02-15T02:55:42.064Z,8.80
2019-02-15T02:58:11.757Z,8.97
2019-02-15T03:00:41.494Z,9.10
2019-02-15T03:03:11.019Z,8.77
2019-02-15T03:05:40.451Z,9.67
2019-02-15T03:08:09.840Z,9.07
2019-02-15T03:10:39.254Z,8.60
2019-02-15T03:13:08.670Z,8.47
2019-02-15T03:15:38.086Z,9.33
2019-02-15T03:18:07.481Z,9.80
2019-02-15T03:20:36.879Z,8.40
2019-02-15T03:23:06.324Z,10.03
2019-02-15T03:25:35.715Z,8.73
2019-02-15T03:28:05.187Z,8.43
2019-02-15T03:30:34.592Z,8.30
2019-02-15T03:33:04.001Z,8.30
2019-02-15T03:35:33.559Z,8.13
2019-02-15T03:38:24.762Z,8.70
2019-02-15T03:40:57.217Z,7.43
2019-02-15T03:43:26.627Z,6.60
2019-02-15T03:45:56.102Z,6.50
2019-02-15T03:48:25.502Z,6.73
2019-02-15T03:50:54.902Z,7.63
2019-02-15T03:53:24.399Z,7.47
2019-02-15T03:55:53.946Z,6.70
2019-02-15T03:58:23.443Z,7.17
2019-02-15T04:00:53.209Z,7.43
2019-02-15T04:03:22.665Z,7.50
2019-02-15T04:05:52.063Z,7.43
2019-02-15T04:08:21.477Z,7.57
2019-02-15T04:10:50.930Z,7.30
2019-02-15T04:13:20.809Z,7.10
2019-02-15T04:15:50.266Z,7.30
2019-02-15T04:18:19.674Z,6.73
2019-02-15T04:20:49.152Z,7.10
2019-02-15T04:23:18.580Z,7.33
2019-02-15T04:25:48.013Z,7.07
2019-02-15T04:28:17.703Z,7.87
2019-02-15T04:30:47.102Z,6.73
2019-02-15T04:33:16.522Z,7.63
2019-02-15T04:35:45.988Z,8.10
2019-02-15T04:38:15.582Z,7.90
2019-02-15T04:40:45.082Z,9.50
2019-02-15T04:43:14.576Z,8.30
2019-02-15T04:45:43.980Z,7.87
2019-02-15T04:48:13.408Z,8.47
2019-02-15T04:50:42.807Z,8.43
2019-02-15T04:53:12.224Z,8.17
2019-02-15T04:55:41.638Z,7.40
2019-02-15T04:58:11.038Z,8.63
2019-02-15T05:00:40.413Z,8.17
2019-02-15T05:03:09.875Z,7.87
2019-02-15T05:05:39.262Z,8.47
2019-02-15T05:08:08.658Z,7.70
2019-02-15T05:10:38.053Z,7.80
2019-02-15T05:13:07.486Z,8.03
2019-02-15T05:15:36.931Z,7.80
2019-02-15T05:18:06.358Z,8.97
2019-02-15T05:20:35.810Z,7.80
2019-02-15T05:23:05.260Z,8.13
2019-02-15T05:25:34.756Z,8.53
2019-02-15T05:28:04.268Z,7.90
2019-02-15T05:30:33.670Z,8.20
2019-02-15T05:33:03.062Z,7.83
2019-02-15T05:35:32.465Z,7.97
2019-02-15T05:38:01.846Z,7.47
2019-02-15T05:40:31.453Z,7.07
2019-02-15T05:43:00.941Z,7.50
2019-02-15T05:45:30.351Z,8.20
2019-02-15T05:48:00.041Z,8.27
2019-02-15T05:50:29.533Z,8.90
2019-02-15T05:52:58.926Z,8.63
2019-02-15T05:55:28.361Z,7.40
2019-02-15T05:57:57.760Z,8.30
2019-02-15T06:00:36.692Z,7.43
2019-02-15T06:02:58.268Z,7.80
2019-02-15T06:05:27.683Z,7.90
2019-02-15T06:07:57.292Z,8.10
2019-02-15T06:10:26.726Z,8.37
2019-02-15T06:12:56.200Z,8.10
2019-02-15T06:15:25.695Z,8.00
2019-02-15T06:17:55.102Z,8.20
2019-02-15T06:20:25.806Z,7.93
2019-02-15T06:22:55.194Z,9.30
2019-02-15T06:25:24.625Z,8.00
2019-02-15T06:27:54.036Z,8.23
2019-02-15T06:30:23.598Z,7.60
2019-02-15T06:32:53.062Z,8.33
2019-02-15T06:35:22.614Z,7.53
2019-02-15T06:37:52.186Z,8.23
2019-02-15T06:40:21.587Z,7.53
2019-02-15T06:42:51.015Z,8.77
2019-02-15T06:45:24.636Z,8.10
2019-02-15T06:47:51.603Z,7.97
2019-02-15T06:50:21.038Z,8.47
2019-02-15T06:52:50.495Z,8.40
2019-02-15T06:55:19.909Z,8.73
2019-02-15T06:57:49.463Z,8.47
2019-02-15T07:00:36.767Z,8.40
2019-02-15T07:03:19.603Z,8.17
2019-02-15T07:05:49.049Z,8.47
2019-02-15T07:08:18.541Z,8.43
2019-02-15T07:10:48.059Z,9.47
2019-02-15T07:13:17.501Z,9.17
2019-02-15T07:15:46.987Z,9.40
2019-02-15T07:18:16.475Z,8.60
2019-02-15T07:20:46.203Z,8.67
2019-02-15T07:23:15.725Z,8.60
2019-02-15T07:25:45.297Z,9.23
2019-02-15T07:28:14.730Z,8.77
2019-02-15T07:30:44.149Z,8.60
2019-02-15T07:33:13.695Z,8.57
2019-02-15T07:35:43.116Z,8.50
2019-02-15T07:38:12.541Z,8.37
2019-02-15T07:40:41.967Z,9.47
2019-02-15T07:43:11.369Z,9.57
2019-02-15T07:45:42.769Z,9.10
2019-02-15T07:48:11.940Z,8.70
2019-02-15T07:50:41.408Z,8.67
2019-02-15T07:53:10.818Z,9.27
2019-02-15T07:55:40.210Z,8.50
2019-02-15T07:58:09.652Z,9.07
2019-02-15T08:00:39.048Z,8.97
2019-02-15T08:03:08.455Z,9.40
2019-02-15T08:05:37.939Z,9.53
2019-02-15T08:08:07.351Z,10.23
2019-02-15T08:10:36.759Z,9.00
2019-02-15T08:13:06.234Z,8.03
2019-02-15T08:15:36.490Z,9.50
2019-02-15T08:18:06.015Z,9.40
2019-02-15T08:20:35.406Z,9.00
2019-02-15T08:23:04.860Z,8.80
2019-02-15T08:25:34.300Z,8.60
2019-02-15T08:28:03.713Z,9.60
2019-02-15T08:30:33.502Z,9.67
2019-02-15T08:33:02.993Z,9.40
2019-02-15T08:35:32.429Z,9.37
2019-02-15T08:38:01.848Z,9.83
2019-02-15T08:40:31.349Z,8.93
2019-02-15T08:43:00.817Z,9.23
2019-02-15T08:45:30.455Z,8.50
2019-02-15T08:47:59.946Z,9.23
2019-02-15T08:50:29.421Z,9.13
2019-02-15T08:52:58.949Z,9.30
2019-02-15T08:55:28.391Z,9.07
2019-02-15T08:57:57.829Z,8.63
2019-02-15T09:00:27.215Z,8.43
2019-02-15T09:02:56.933Z,8.77
2019-02-15T09:05:26.370Z,9.07
2019-02-15T09:07:55.859Z,8.73
2019-02-15T09:10:25.251Z,8.53
2019-02-15T09:12:54.741Z,8.60
2019-02-15T09:15:24.287Z,9.40
2019-02-15T09:17:53.735Z,8.90
2019-02-15T09:20:23.189Z,12.50
2019-02-15T09:22:52.678Z,8.87
2019-02-15T09:25:22.146Z,9.17
2019-02-15T09:28:13.902Z,8.90
2019-02-15T09:30:45.275Z,9.50
2019-02-15T09:33:14.816Z,9.37
2019-02-15T09:35:44.612Z,12.23
2019-02-15T09:38:14.050Z,9.97
2019-02-15T09:40:43.454Z,9.47
2019-02-15T09:43:12.969Z,9.80
2019-02-15T09:45:42.506Z,10.03
2019-02-15T09:48:11.901Z,10.63
2019-02-15T09:50:41.968Z,9.93
2019-02-15T09:53:11.360Z,10.10
2019-02-15T09:55:40.903Z,9.50
2019-02-15T09:58:10.378Z,10.00
2019-02-15T10:00:39.852Z,9.73
2019-02-15T10:03:09.343Z,10.07
2019-02-15T10:05:38.789Z,11.00
2019-02-15T10:08:08.224Z,10.13
2019-02-15T10:10:37.633Z,10.73
2019-02-15T10:13:07.077Z,10.73
2019-02-15T10:15:36.575Z,10.90
2019-02-15T10:18:06.107Z,10.00
2019-02-15T10:20:35.586Z,10.07
2019-02-15T10:23:05.030Z,10.53
2019-02-15T10:25:34.781Z,10.17
2019-02-15T10:28:04.348Z,10.67
2019-02-15T10:30:34.017Z,10.80
2019-02-15T10:33:03.507Z,10.87
2019-02-15T10:35:33.132Z,10.53
2019-02-15T10:38:02.549Z,10.27
2019-02-15T10:40:32.017Z,12.23
2019-02-15T10:43:01.413Z,10.30
2019-02-15T10:45:30.877Z,10.03
2019-02-15T10:48:00.401Z,10.57
2019-02-15T10:50:29.818Z,10.77
2019-02-15T10:52:59.273Z,10.23
2019-02-15T10:55:28.679Z,10.07
2019-02-15T10:57:58.415Z,10.27
2019-02-15T11:00:28.278Z,10.40
2019-02-15T11:02:57.690Z,9.73
2019-02-15T11:05:27.146Z,10.40
2019-02-15T11:07:56.710Z,11.57
2019-02-15T11:10:26.119Z,10.00
2019-02-15T11:12:55.602Z,10.90
2019-02-15T11:15:25.140Z,10.23
2019-02-15T11:17:54.566Z,10.17
2019-02-15T11:20:24.410Z,10.70
2019-02-15T11:22:53.824Z,10.50
2019-02-15T11:25:23.282Z,11.13
2019-02-15T11:27:52.903Z,11.00
2019-02-15T11:30:22.536Z,10.50
2019-02-15T11:32:52.002Z,10.30
2019-02-15T11:35:21.454Z,11.03
2019-02-15T11:37:50.933Z,10.70
2019-02-15T11:40:20.351Z,11.33
2019-02-15T11:42:49.802Z,11.40
2019-02-15T11:45:19.261Z,11.43
2019-02-15T11:47:48.789Z,11.67
2019-02-15T11:50:18.287Z,11.70
2019-02-15T11:52:47.757Z,11.97
2019-02-15T11:55:17.241Z,10.20
2019-02-15T11:57:46.651Z,10.63
2019-02-15T12:00:22.507Z,10.90
2019-02-15T12:02:50.483Z,10.47
2019-02-15T12:05:19.907Z,10.50
2019-02-15T12:07:49.493Z,10.37
2019-02-15T12:10:19.071Z,10.93
2019-02-15T12:12:48.490Z,9.97
2019-02-15T12:15:17.996Z,9.27
2019-02-15T12:17:47.475Z,9.30
2019-02-15T12:20:16.953Z,8.87
2019-02-15T12:22:46.434Z,8.87
2019-02-15T12:25:15.838Z,9.17
2019-02-15T12:27:45.249Z,8.63
2019-02-15T12:30:14.995Z,10.20
2019-02-15T12:32:44.406Z,9.30
2019-02-15T12:35:13.997Z,9.43
2019-02-15T12:37:43.433Z,9.20
2019-02-15T12:40:13.561Z,8.07
2019-02-15T12:42:43.002Z,8.73
2019-02-15T12:45:12.763Z,8.70
2019-02-15T12:47:42.270Z,8.50
2019-02-15T12:50:13.182Z,8.27
2019-02-15T12:52:42.589Z,8.37
2019-02-15T12:55:12.089Z,8.73
2019-02-15T12:57:47.694Z,8.57
2019-02-15T13:00:17.098Z,8.63
2019-02-15T13:02:46.521Z,8.60
2019-02-15T13:05:15.994Z,8.20
2019-02-15T13:07:45.414Z,8.40
2019-02-15T13:10:18.136Z,8.13
2019-02-15T13:12:47.603Z,7.73
2019-02-15T13:15:16.998Z,7.77
2019-02-15T13:17:46.469Z,8.33
2019-02-15T13:20:15.905Z,7.90
2019-02-15T13:22:45.522Z,7.67
2019-02-15T13:25:15.009Z,8.50
2019-02-15T13:27:44.559Z,7.53
2019-02-15T13:30:14.084Z,7.67
2019-02-15T13:32:43.607Z,7.10
2019-02-15T13:35:13.727Z,10.10
2019-02-15T13:37:43.169Z,9.43
2019-02-15T13:40:12.711Z,7.63
2019-02-15T13:42:42.261Z,7.20
2019-02-15T13:45:15.467Z,8.20
2019-02-15T13:47:44.902Z,7.17
2019-02-15T13:50:14.401Z,7.70
2019-02-15T13:52:43.897Z,7.87
2019-02-15T13:55:13.473Z,7.37
2019-02-15T13:57:43.153Z,7.10
2019-02-15T14:00:12.922Z,7.10
2019-02-15T14:02:42.399Z,7.87
2019-02-15T14:05:12.167Z,7.10
2019-02-15T14:07:41.727Z,7.20
2019-02-15T14:10:11.237Z,6.33
2019-02-15T14:12:40.765Z,6.20
2019-02-15T14:15:10.374Z,6.30
2019-02-15T14:17:45.333Z,6.40
2019-02-15T14:20:11.416Z,6.10
2019-02-15T14:22:40.821Z,6.70
2019-02-15T14:25:10.372Z,6.37
2019-02-15T14:27:39.908Z,6.10
2019-02-15T14:30:10.191Z,6.17
2019-02-15T14:32:39.692Z,5.67
2019-02-15T14:35:09.518Z,5.70
2019-02-15T14:37:39.082Z,6.57
2019-02-15T14:40:09.298Z,5.97
2019-02-15T14:42:38.874Z,6.37
2019-02-15T14:45:09.430Z,6.53
2019-02-15T14:47:38.894Z,6.17
2019-02-15T14:50:08.602Z,6.10
2019-02-15T14:52:38.085Z,7.03
2019-02-15T14:55:07.732Z,5.57
2019-02-15T14:57:37.267Z,6.17
2019-02-15T15:00:08.750Z,5.87
2019-02-15T15:02:38.164Z,5.83
2019-02-15T15:05:08.069Z,7.10
2019-02-15T15:07:37.497Z,6.60
2019-02-15T15:10:08.319Z,6.23
2019-02-15T15:12:37.803Z,6.33
2019-02-15T15:15:08.487Z,6.50
2019-02-15T15:17:37.980Z,7.80
2019-02-15T15:20:09.241Z,7.63
2019-02-15T15:22:38.759Z,5.37
2019-02-15T15:25:09.424Z,4.80
2019-02-15T15:27:39.082Z,4.70
2019-02-15T15:30:10.039Z,4.93
2019-02-15T15:32:39.707Z,5.77
2019-02-15T15:35:09.272Z,5.87
2019-02-15T15:37:38.687Z,5.20
2019-02-15T15:40:09.487Z,5.33
2019-02-15T15:42:39.012Z,6.70
2019-02-15T15:45:09.384Z,5.10
2019-02-15T15:47:38.832Z,5.97
2019-02-15T15:50:09.207Z,5.17
2019-02-15T15:52:38.764Z,5.97
2019-02-15T15:55:09.167Z,5.70
2019-02-15T15:57:38.712Z,5.63
2019-02-15T16:00:10.004Z,5.73
2019-02-15T16:02:39.434Z,6.57
2019-02-15T16:05:09.545Z,6.13
2019-02-15T16:07:39.012Z,6.80
2019-02-15T16:10:09.868Z,6.00
2019-02-15T16:12:39.353Z,6.93
2019-02-15T16:15:09.717Z,6.67
2019-02-15T16:17:39.130Z,7.23
2019-02-15T16:20:09.522Z,8.07
2019-02-15T16:22:38.969Z,7.30
2019-02-15T16:25:08.699Z,7.33
2019-02-15T16:27:38.208Z,7.83
2019-02-15T16:30:09.388Z,7.63
2019-02-15T16:32:38.874Z,6.90
2019-02-15T16:35:08.616Z,7.20
2019-02-15T16:37:38.034Z,7.33
2019-02-15T16:40:09.030Z,7.90
2019-02-15T16:42:38.418Z,7.03
2019-02-15T16:45:09.650Z,7.83
2019-02-15T16:47:39.174Z,6.37
2019-02-15T16:50:09.006Z,6.00
2019-02-15T16:52:38.430Z,6.30
2019-02-15T16:55:12.888Z,7.13
2019-02-15T16:57:39.690Z,6.80
2019-02-15T17:00:09.758Z,9.73
2019-02-15T17:02:39.268Z,9.70
2019-02-15T17:05:08.755Z,7.87
2019-02-15T17:07:38.316Z,7.53
2019-02-15T17:10:08.144Z,7.97
2019-02-15T17:12:37.642Z,14.93
2019-02-15T17:15:08.059Z,16.70
2019-02-15T17:17:37.687Z,23.53
2019-02-15T17:20:07.607Z,12.13
2019-02-15T17:22:37.127Z,8.60
2019-02-15T17:25:08.032Z,7.37
2019-02-15T17:27:37.533Z,6.40
2019-02-15T17:30:07.741Z,7.30
2019-02-15T17:32:37.186Z,7.70
2019-02-15T17:35:07.715Z,6.20
2019-02-15T17:37:37.213Z,6.37
2019-02-15T17:40:08.045Z,6.87
2019-02-15T17:42:37.487Z,8.33
2019-02-15T17:45:07.718Z,7.37
2019-02-15T17:47:37.116Z,9.50
2019-02-15T17:50:07.178Z,6.57
2019-02-15T17:52:36.596Z,8.10
2019-02-15T17:55:06.111Z,6.47
2019-02-15T17:57:35.601Z,6.80
2019-02-15T18:00:06.204Z,8.70
2019-02-15T18:02:35.638Z,5.27
2019-02-15T18:05:05.498Z,5.20
2019-02-15T18:07:35.069Z,7.43
2019-02-15T18:10:04.677Z,4.43
2019-02-15T18:12:34.134Z,4.37
2019-02-15T18:15:03.704Z,8.50
2019-02-15T18:17:33.090Z,7.00
2019-02-15T18:20:02.574Z,7.80
2019-02-15T18:22:31.990Z,6.10
2019-02-15T18:25:01.407Z,8.30
2019-02-15T18:27:30.881Z,8.73
2019-02-15T18:30:00.411Z,7.90
2019-02-15T18:32:30.027Z,8.93
2019-02-15T18:34:59.427Z,8.53
2019-02-15T18:37:28.836Z,7.83
2019-02-15T18:39:58.262Z,7.60
2019-02-15T18:42:27.868Z,7.83
2019-02-15T18:44:57.284Z,16.00
2019-02-15T18:47:26.791Z,10.33
2019-02-15T18:49:56.211Z,12.77
2019-02-15T18:52:25.710Z,12.30
2019-02-15T18:54:55.160Z,8.30
2019-02-15T18:57:24.736Z,9.10
2019-02-15T18:59:54.215Z,10.23
2019-02-15T19:02:23.719Z,15.63
2019-02-15T19:04:53.327Z,11.10
2019-02-15T19:07:22.833Z,11.93
2019-02-15T19:09:52.273Z,13.70
2019-02-15T19:12:21.781Z,12.43
2019-02-15T19:14:51.242Z,13.63
2019-02-15T19:17:20.700Z,18.50
2019-02-15T19:19:50.164Z,22.70
2019-02-15T19:22:19.619Z,20.70
2019-02-15T19:24:49.225Z,13.93
2019-02-15T19:27:18.627Z,11.67
2019-02-15T19:29:48.394Z,13.50
2019-02-15T19:32:18.047Z,18.10
2019-02-15T19:34:47.732Z,15.70
2019-02-15T19:37:17.320Z,12.43
2019-02-15T19:39:46.827Z,12.67
2019-02-15T19:42:19.545Z,13.13
2019-02-15T19:44:49.026Z,12.10
2019-02-15T19:47:18.558Z,11.73
2019-02-15T19:49:48.034Z,13.00
2019-02-15T19:52:17.448Z,11.90
2019-02-15T19:54:47.082Z,12.83
2019-02-15T19:57:16.563Z,11.93
2019-02-15T19:59:53.479Z,12.77
2019-02-15T20:02:17.200Z,12.37
2019-02-15T20:04:46.731Z,10.93
2019-02-15T20:07:16.193Z,11.50
2019-02-15T20:09:45.627Z,11.80
2019-02-15T20:12:15.046Z,11.80
2019-02-15T20:14:44.587Z,12.33
2019-02-15T20:17:14.040Z,10.90
2019-02-15T20:19:48.791Z,11.57
2019-02-15T20:22:14.662Z,11.37
2019-02-15T20:24:44.101Z,11.70
2019-02-15T20:27:13.522Z,10.83
2019-02-15T20:29:49.203Z,10.57
2019-02-15T20:32:14.032Z,9.33
2019-02-15T20:34:45.341Z,9.43
2019-02-15T20:37:14.706Z,9.20
2019-02-15T20:39:44.226Z,9.37
2019-02-15T20:42:13.937Z,9.17
2019-02-15T20:44:43.415Z,9.70
2019-02-15T20:47:12.861Z,8.80
2019-02-15T20:49:42.306Z,9.73
2019-02-15T20:52:11.734Z,16.13
2019-02-15T20:54:41.211Z,9.10
2019-02-15T20:57:10.659Z,9.60
2019-02-15T20:59:40.415Z,9.90
2019-02-15T21:02:09.911Z,8.37
2019-02-15T21:04:39.569Z,8.60
2019-02-15T21:07:09.073Z,8.80
2019-02-15T21:09:38.474Z,8.77
2019-02-15T21:12:08.008Z,10.47
2019-02-15T21:14:37.963Z,10.83
2019-02-15T21:17:07.235Z,10.83
2019-02-15T21:19:36.665Z,12.23
2019-02-15T21:22:06.135Z,11.70
2019-02-15T21:24:35.588Z,10.60
2019-02-15T21:27:05.002Z,10.20
2019-02-15T21:29:34.421Z,9.73
2019-02-15T21:32:03.858Z,11.17
2019-02-15T21:34:33.543Z,10.87
2019-02-15T21:37:03.062Z,12.97
2019-02-15T21:39:32.472Z,10.77
2019-02-15T21:42:01.908Z,11.30
2019-02-15T21:44:31.332Z,10.40
2019-02-15T21:47:00.775Z,10.33
2019-02-15T21:49:30.218Z,10.23
2019-02-15T21:51:59.790Z,10.13
2019-02-15T21:54:29.222Z,10.80
2019-02-15T21:56:58.770Z,10.63
2019-02-15T21:59:30.165Z,10.90
2019-02-15T22:01:59.577Z,11.30
2019-02-15T22:04:28.982Z,10.57
2019-02-15T22:06:58.454Z,11.03
2019-02-15T22:09:27.899Z,11.03
2019-02-15T22:11:57.328Z,10.90
2019-02-15T22:14:26.764Z,10.53
2019-02-15T22:16:56.169Z,10.87
2019-02-15T22:19:25.598Z,10.30
2019-02-15T22:21:55.010Z,9.97
2019-02-15T22:24:24.459Z,10.80
2019-02-15T22:26:53.857Z,10.40
2019-02-15T22:29:23.322Z,11.47
2019-02-15T22:31:52.757Z,10.80
2019-02-15T22:34:22.189Z,9.77
2019-02-15T22:36:51.607Z,10.70
2019-02-15T22:39:21.073Z,10.70
2019-02-15T22:41:50.983Z,11.27
2019-02-15T22:44:20.399Z,10.33
2019-02-15T22:46:49.809Z,10.83
2019-02-15T22:49:19.231Z,10.73
2019-02-15T22:51:48.649Z,9.67
2019-02-15T22:54:18.165Z,10.07
2019-02-15T22:56:47.580Z,9.87
2019-02-15T22:59:16.969Z,9.37
2019-02-15T23:01:46.504Z,10.27
2019-02-15T23:04:16.030Z,10.00
2019-02-15T23:06:45.446Z,10.93
2019-02-15T23:09:25.455Z,11.57
2019-02-15T23:11:54.873Z,12.20
2019-02-15T23:14:24.288Z,11.30
2019-02-15T23:16:53.820Z,11.73
2019-02-15T23:19:23.230Z,11.57
2019-02-15T23:21:52.649Z,10.83
2019-02-15T23:24:22.058Z,11.60
2019-02-15T23:26:51.466Z,11.03
2019-02-15T23:29:20.898Z,11.43
2019-02-15T23:31:51.138Z,10.37
2019-02-15T23:34:20.617Z,10.20
2019-02-15T23:36:50.010Z,9.17
2019-02-15T23:39:19.450Z,9.13
2019-02-15T23:41:48.855Z,8.73
2019-02-15T23:44:18.262Z,8.80
2019-02-15T23:46:47.650Z,8.73
2019-02-15T23:49:17.082Z,8.43
2019-02-15T23:51:46.521Z,9.23
2019-02-15T23:54:15.986Z,9.03
2019-02-15T23:56:45.566Z,8.63
2019-02-15T23:59:15.017Z,9.83
